Time;durP1;ratioP1;P1;durP2;ratioP2;P2;SDS_P1;SDS_P2;PMS_P1;PMS_P2;Temp;Humidity;BMP_temperature;BMP_pressure;BME280_temperature;BME280_humidity;BME280_pressure;Samples;Min_cycle;Max_cycle;Signal;HPM_P1;HPM_P2
2021/01/13 00:01:06;;;;;;;14.80;5.68;;;-0.90;99.90;;;;;;5045304;28;20045;-57
2021/01/13 00:03:32;;;;;;;12.77;5.18;;;-0.90;99.90;;;;;;5051257;28;20040;-56
2021/01/13 00:05:57;;;;;;;12.77;4.35;;;-0.90;99.90;;;;;;5041170;28;20049;-57
2021/01/13 00:08:23;;;;;;;10.73;5.25;;;-0.90;99.90;;;;;;5031625;28;20045;-56
2021/01/13 00:10:49;;;;;;;13.80;4.78;;;-0.90;99.90;;;;;;5041896;28;20040;-57
2021/01/13 00:13:15;;;;;;;11.73;4.88;;;-0.90;99.90;;;;;;5051186;28;20037;-57
2021/01/13 00:15:41;;;;;;;11.98;4.55;;;-0.80;99.90;;;;;;5046099;28;20033;-58
2021/01/13 00:18:07;;;;;;;10.52;4.32;;;-0.80;99.90;;;;;;5051311;28;20035;-56
2021/01/13 00:20:32;;;;;;;9.65;4.60;;;-0.80;99.90;;;;;;5048739;28;20033;-57
2021/01/13 00:22:58;;;;;;;11.43;4.72;;;-0.80;99.90;;;;;;5051005;28;20476;-55
2021/01/13 00:25:24;;;;;;;11.73;5.15;;;-0.80;99.90;;;;;;5049549;28;20056;-56
2021/01/13 00:27:49;;;;;;;10.45;4.38;;;-0.80;99.90;;;;;;5035742;28;20239;-57
2021/01/13 00:30:16;;;;;;;10.95;4.65;;;-0.90;99.90;;;;;;5030680;28;20041;-57
2021/01/13 00:32:43;;;;;;;12.85;5.28;;;-0.80;99.90;;;;;;5042749;28;20473;-57
2021/01/13 00:35:09;;;;;;;10.75;4.80;;;-0.80;99.90;;;;;;5048475;28;20037;-56
2021/01/13 00:37:37;;;;;;;9.35;4.25;;;-0.80;99.90;;;;;;5034339;28;20080;-58
2021/01/13 00:40:08;;;;;;;11.77;4.80;;;-0.80;99.90;;;;;;5037770;28;20040;-58
2021/01/13 00:42:33;;;;;;;9.20;3.42;;;-0.80;99.90;;;;;;5050529;28;20068;-57
2021/01/13 00:44:59;;;;;;;17.25;5.25;;;-0.80;99.90;;;;;;5049240;28;20064;-56
2021/01/13 00:47:25;;;;;;;9.13;4.45;;;-0.80;99.90;;;;;;5048709;28;20033;-56
2021/01/13 00:49:50;;;;;;;14.23;4.60;;;-0.70;99.90;;;;;;5030845;28;20033;-58
2021/01/13 00:52:16;;;;;;;11.90;4.15;;;-0.80;99.90;;;;;;5032554;28;20053;-54
2021/01/13 00:54:42;;;;;;;14.07;4.18;;;-0.80;99.90;;;;;;5049971;28;20465;-58
2021/01/13 00:57:09;;;;;;;11.43;3.88;;;-0.80;99.90;;;;;;5049635;28;20029;-56
2021/01/13 00:59:34;;;;;;;10.55;3.90;;;-0.80;99.90;;;;;;5049946;28;20044;-58
2021/01/13 01:02:00;;;;;;;15.20;4.30;;;-0.80;99.90;;;;;;5050462;28;20033;-56
2021/01/13 01:04:26;;;;;;;8.18;4.55;;;-0.80;99.90;;;;;;5034751;28;20116;-57
2021/01/13 01:06:51;;;;;;;8.82;3.55;;;-0.80;99.90;;;;;;5030079;28;20136;-57
2021/01/13 01:09:17;;;;;;;10.68;4.80;;;-0.70;99.90;;;;;;5019884;28;20037;-57
2021/01/13 01:11:43;;;;;;;9.18;3.47;;;-0.80;99.90;;;;;;5030221;28;20564;-58
2021/01/13 01:14:10;;;;;;;12.13;4.35;;;-0.80;99.90;;;;;;5028913;28;20231;-58
2021/01/13 01:16:43;;;;;;;9.95;4.80;;;-0.80;99.90;;;;;;5030087;28;20048;-55
2021/01/13 01:19:10;;;;;;;10.77;4.00;;;-0.90;99.90;;;;;;5027974;28;20405;-58
2021/01/13 01:21:42;;;;;;;10.48;4.10;;;-0.80;99.90;;;;;;5030232;28;20151;-57
2021/01/13 01:24:08;;;;;;;8.25;4.38;;;-0.90;99.90;;;;;;5027969;28;20037;-57
2021/01/13 01:26:45;;;;;;;10.23;4.05;;;-0.90;99.90;;;;;;5029701;28;20458;-57
2021/01/13 01:29:11;;;;;;;11.98;5.20;;;-0.80;99.90;;;;;;5025983;28;20038;-58
2021/01/13 01:31:36;;;;;;;10.02;4.68;;;-0.90;99.90;;;;;;5026977;28;20392;-58
2021/01/13 01:34:02;;;;;;;11.25;4.68;;;-0.90;99.90;;;;;;5020339;28;20037;-56
2021/01/13 01:36:28;;;;;;;10.60;3.95;;;-0.80;99.90;;;;;;5029014;28;20067;-57
2021/01/13 01:38:53;;;;;;;12.40;4.50;;;-0.80;99.90;;;;;;5028445;28;20037;-58
2021/01/13 01:41:19;;;;;;;9.20;4.38;;;-0.90;99.90;;;;;;5029547;28;20160;-57
2021/01/13 01:43:45;;;;;;;9.40;3.53;;;-0.80;99.90;;;;;;5028006;28;20409;-57
2021/01/13 01:46:11;;;;;;;10.63;4.75;;;-0.80;99.90;;;;;;5021542;28;20038;-56
2021/01/13 01:48:56;;;;;;;10.38;3.95;;;-0.80;99.90;;;;;;5011658;28;20036;-58
2021/01/13 01:51:28;;;;;;;8.55;4.35;;;-0.90;99.90;;;;;;5029189;28;20051;-56
2021/01/13 01:54:07;;;;;;;13.23;4.90;;;-0.90;99.90;;;;;;5028799;28;20110;-57
2021/01/13 01:56:38;;;;;;;10.68;4.72;;;-0.90;99.90;;;;;;5028211;28;20120;-55
2021/01/13 01:59:11;;;;;;;10.55;4.68;;;-0.90;99.90;;;;;;5027726;28;20461;-57
2021/01/13 02:01:51;;;;;;;8.27;4.03;;;-1.00;99.90;;;;;;5029404;28;20033;-58
2021/01/13 02:04:23;;;;;;;8.05;3.85;;;-1.00;99.90;;;;;;5028401;28;20041;-59
2021/01/13 02:06:57;;;;;;;9.77;4.35;;;-1.00;99.90;;;;;;5028209;28;20137;-58
2021/01/13 02:09:23;;;;;;;12.35;4.55;;;-1.00;99.90;;;;;;5029308;28;20037;-57
2021/01/13 02:11:53;;;;;;;9.00;4.28;;;-1.00;99.90;;;;;;5043223;28;20114;-57
2021/01/13 02:14:19;;;;;;;9.40;4.03;;;-0.90;99.90;;;;;;5048882;28;20025;-57
2021/01/13 02:16:50;;;;;;;10.27;3.55;;;-0.90;99.90;;;;;;5038590;28;20056;-56
2021/01/13 02:19:47;;;;;;;8.98;3.75;;;-0.90;99.90;;;;;;5029178;28;20412;-58
2021/01/13 02:22:21;;;;;;;11.27;4.22;;;-0.90;99.90;;;;;;5044682;28;20037;-58
2021/01/13 02:25:05;;;;;;;10.10;3.92;;;-0.90;99.90;;;;;;5048645;28;20071;-58
2021/01/13 02:27:46;;;;;;;10.13;3.95;;;-0.80;99.90;;;;;;5033822;28;20037;-57
2021/01/13 02:30:16;;;;;;;11.00;3.97;;;-0.90;99.90;;;;;;5046076;28;20072;-56
2021/01/13 02:32:47;;;;;;;10.05;4.07;;;-0.90;99.90;;;;;;5049010;28;20116;-57
2021/01/13 02:35:20;;;;;;;6.80;2.92;;;-0.90;99.90;;;;;;5047311;28;20037;-54
2021/01/13 02:38:07;;;;;;;9.52;3.92;;;-1.00;99.90;;;;;;5045553;28;20558;-56
2021/01/13 02:40:33;;;;;;;9.48;3.55;;;-1.00;99.90;;;;;;5046739;28;20428;-58
2021/01/13 02:43:08;;;;;;;10.93;4.70;;;-1.00;99.90;;;;;;5048532;28;20421;-58
2021/01/13 02:45:43;;;;;;;10.23;3.28;;;-1.00;99.90;;;;;;5047879;28;20486;-57
2021/01/13 02:48:10;;;;;;;12.68;4.32;;;-1.00;99.90;;;;;;5047620;28;20037;-57
2021/01/13 02:50:42;;;;;;;9.75;4.47;;;-1.00;99.90;;;;;;5048338;28;20393;-57
2021/01/13 02:53:13;;;;;;;12.10;4.82;;;-1.00;99.90;;;;;;5047741;28;20460;-56
2021/01/13 02:58:10;;;;;;;10.13;4.28;;;-1.10;99.90;;;;;;4937864;22;20567;-57
2021/01/13 03:00:37;;;;;;;10.07;4.43;;;-1.10;99.90;;;;;;5047368;28;20060;-57
2021/01/13 03:03:04;;;;;;;10.50;4.05;;;-1.20;99.90;;;;;;5048282;28;20040;-57
2021/01/13 03:05:29;;;;;;;11.77;4.35;;;-1.20;99.90;;;;;;5046409;28;20045;-55
2021/01/13 03:07:57;;;;;;;9.60;3.63;;;-1.20;99.90;;;;;;5044875;28;20056;-57
2021/01/13 03:10:25;;;;;;;9.38;3.92;;;-1.20;99.90;;;;;;5042472;28;20385;-58
2021/01/13 03:13:01;;;;;;;8.10;3.67;;;-1.20;99.90;;;;;;5052192;28;20426;-55
2021/01/13 03:15:28;;;;;;;14.10;4.18;;;-1.20;99.90;;;;;;5051349;28;20059;-55
2021/01/13 03:18:19;;;;;;;9.20;4.10;;;-1.00;99.90;;;;;;5052384;28;20067;-56
2021/01/13 03:20:51;;;;;;;9.02;3.83;;;-1.10;99.90;;;;;;5050815;28;20423;-57
2021/01/13 03:23:22;;;;;;;10.13;3.83;;;-1.00;99.90;;;;;;5052201;28;20127;-57
2021/01/13 03:25:59;;;;;;;12.40;5.07;;;-1.00;99.90;;;;;;5051103;28;20563;-57
2021/01/13 03:28:30;;;;;;;11.02;3.92;;;-1.10;99.90;;;;;;5051734;28;20403;-59
2021/01/13 03:30:58;;;;;;;10.75;4.25;;;-1.10;99.90;;;;;;5051224;28;20044;-57
2021/01/13 03:33:24;;;;;;;12.45;4.32;;;-1.00;99.90;;;;;;5051938;28;20063;-57
2021/01/13 03:36:01;;;;;;;10.70;5.03;;;-1.10;99.90;;;;;;5051176;28;20041;-57
2021/01/13 03:38:31;;;;;;;10.02;3.75;;;-1.10;99.90;;;;;;5051584;28;20412;-57
2021/01/13 03:41:06;;;;;;;11.15;4.15;;;-1.00;99.90;;;;;;5050712;28;20048;-57
2021/01/13 03:43:39;;;;;;;9.88;4.00;;;-1.00;99.90;;;;;;5051585;28;20120;-57
2021/01/13 03:46:07;;;;;;;8.05;3.50;;;-1.00;99.90;;;;;;5049877;28;20032;-57
2021/01/13 03:48:42;;;;;;;8.18;3.63;;;-0.90;99.90;;;;;;5051448;28;20109;-57
2021/01/13 03:51:59;;;;;;;10.30;4.07;;;-0.90;99.90;;;;;;5050418;28;20053;-57
2021/01/13 03:54:27;;;;;;;9.52;3.72;;;-0.90;99.90;;;;;;5050581;28;20041;-56
2021/01/13 03:57:08;;;;;;;11.80;3.28;;;-0.90;99.90;;;;;;5051827;28;20439;-57
2021/01/13 03:59:46;;;;;;;10.68;4.05;;;-0.90;99.90;;;;;;5049907;28;20049;-58
2021/01/13 04:02:17;;;;;;;10.70;3.85;;;-0.90;99.90;;;;;;5048705;28;20094;-57
2021/01/13 04:04:54;;;;;;;10.88;3.85;;;-0.90;99.90;;;;;;5050038;28;20120;-58
2021/01/13 04:07:23;;;;;;;8.90;3.75;;;-1.00;99.90;;;;;;5050150;28;20032;-57
2021/01/13 04:09:51;;;;;;;10.13;3.60;;;-1.00;99.90;;;;;;5050949;28;20033;-55
2021/01/13 04:12:21;;;;;;;7.20;3.63;;;-1.00;99.90;;;;;;5050155;28;20400;-57
2021/01/13 04:14:56;;;;;;;10.68;3.92;;;-1.00;99.90;;;;;;5050969;28;20518;-56
2021/01/13 04:17:23;;;;;;;10.10;4.00;;;-1.00;99.90;;;;;;5049847;28;20033;-57
2021/01/13 04:19:50;;;;;;;7.10;3.30;;;-1.10;99.90;;;;;;5049974;28;20645;-56
2021/01/13 04:22:18;;;;;;;10.35;3.80;;;-1.10;99.90;;;;;;5050216;28;20306;-57
2021/01/13 04:24:47;;;;;;;8.88;4.28;;;-1.10;99.90;;;;;;5049615;28;20025;-57
2021/01/13 04:27:15;;;;;;;9.85;3.88;;;-1.10;99.90;;;;;;5050910;28;20506;-56
2021/01/13 04:29:41;;;;;;;8.55;3.90;;;-1.00;99.90;;;;;;5049373;28;20037;-56
2021/01/13 04:32:08;;;;;;;9.45;3.70;;;-1.20;99.90;;;;;;5050868;28;20068;-55
2021/01/13 04:34:34;;;;;;;10.15;3.55;;;-1.10;99.90;;;;;;5049578;28;20116;-55
2021/01/13 04:37:03;;;;;;;13.60;4.47;;;-1.10;99.90;;;;;;5049334;28;20072;-57
2021/01/13 04:39:29;;;;;;;11.40;4.88;;;-1.10;99.90;;;;;;5049209;28;20036;-57
2021/01/13 04:41:59;;;;;;;13.90;4.40;;;-1.20;99.90;;;;;;5046249;28;20550;-56
2021/01/13 04:44:30;;;;;;;9.68;4.15;;;-1.10;99.90;;;;;;5030405;28;20033;-56
2021/01/13 04:47:04;;;;;;;8.43;3.30;;;-1.20;99.90;;;;;;5030247;28;20091;-58
2021/01/13 04:49:32;;;;;;;7.45;3.58;;;-1.20;99.90;;;;;;5030264;28;20523;-58
2021/01/13 04:52:05;;;;;;;11.27;4.53;;;-1.10;99.90;;;;;;5030183;28;20044;-54
2021/01/13 04:54:36;;;;;;;9.10;3.75;;;-1.10;99.90;;;;;;5050130;28;20095;-56
2021/01/13 04:57:11;;;;;;;11.15;4.25;;;-1.10;99.90;;;;;;5050019;28;20048;-58
2021/01/13 05:00:15;;;;;;;10.30;4.60;;;-1.20;99.90;;;;;;5030111;28;20053;-56
2021/01/13 05:03:03;;;;;;;7.57;3.38;;;-1.20;99.90;;;;;;5032584;28;20025;-58
2021/01/13 05:05:31;;;;;;;9.35;3.38;;;-1.20;99.90;;;;;;5041327;28;20239;-56
2021/01/13 05:08:24;;;;;;;9.40;3.70;;;-1.10;99.90;;;;;;5048864;28;20040;-57
2021/01/13 05:10:55;;;;;;;8.40;3.67;;;-1.10;99.90;;;;;;5049707;28;20480;-56
2021/01/13 05:13:24;;;;;;;9.27;3.47;;;-1.10;99.90;;;;;;5049096;28;20155;-55
2021/01/13 05:15:52;;;;;;;12.65;4.15;;;-1.10;99.90;;;;;;5048830;28;20036;-56
2021/01/13 05:18:44;;;;;;;12.82;3.45;;;-1.10;99.90;;;;;;5049691;28;20041;-56
2021/01/13 05:21:27;;;;;;;8.60;3.70;;;-1.10;99.90;;;;;;5037815;28;20528;-57
2021/01/13 05:23:56;;;;;;;8.43;3.70;;;-1.10;99.90;;;;;;5048944;28;20041;-58
2021/01/13 05:26:26;;;;;;;8.05;3.72;;;-1.20;99.90;;;;;;5048677;28;20037;-54
2021/01/13 05:29:04;;;;;;;12.40;3.90;;;-1.30;99.90;;;;;;5049524;28;20116;-54
2021/01/13 05:31:34;;;;;;;11.73;4.13;;;-1.30;99.90;;;;;;5048218;28;20102;-53
2021/01/13 05:34:01;;;;;;;12.38;4.70;;;-1.30;99.90;;;;;;5048989;28;20373;-56
2021/01/13 05:36:32;;;;;;;11.40;3.92;;;-1.40;99.90;;;;;;5048509;28;20511;-58
2021/01/13 05:39:12;;;;;;;11.05;4.18;;;-1.40;99.90;;;;;;5049335;28;20040;-57
2021/01/13 05:41:40;;;;;;;8.70;4.00;;;-1.40;99.90;;;;;;5048481;28;20043;-58
2021/01/13 05:44:07;;;;;;;14.55;3.78;;;-1.30;99.90;;;;;;5048275;28;20099;-57
2021/01/13 05:46:44;;;;;;;10.45;4.35;;;-1.30;99.90;;;;;;5049567;28;20060;-54
2021/01/13 05:49:10;;;;;;;10.02;4.50;;;-1.40;99.90;;;;;;5049717;28;20039;-56
2021/01/13 05:51:37;;;;;;;9.00;4.18;;;-1.40;99.90;;;;;;5048935;28;20067;-54
2021/01/13 05:54:05;;;;;;;7.60;3.58;;;-1.40;99.90;;;;;;5048192;28;20524;-54
2021/01/13 05:56:37;;;;;;;10.02;4.30;;;-1.40;99.90;;;;;;5048687;28;20029;-57
2021/01/13 05:59:07;;;;;;;11.23;4.32;;;-1.30;99.90;;;;;;5047951;28;20400;-57
2021/01/13 06:01:42;;;;;;;9.30;4.03;;;-1.30;99.90;;;;;;5047791;28;20110;-58
2021/01/13 06:04:10;;;;;;;7.18;3.25;;;-1.30;99.90;;;;;;5047592;28;20094;-57
2021/01/13 06:06:44;;;;;;;11.32;4.15;;;-1.30;99.90;;;;;;5046605;28;20029;-57
2021/01/13 06:09:11;;;;;;;9.93;4.75;;;-1.40;99.90;;;;;;5047591;28;20108;-57
2021/01/13 06:11:41;;;;;;;12.70;4.28;;;-1.40;99.90;;;;;;5047763;28;20562;-57
2021/01/13 06:14:09;;;;;;;8.80;4.03;;;-1.30;99.90;;;;;;5047827;28;20036;-57
2021/01/13 06:16:36;;;;;;;7.68;3.78;;;-1.30;99.90;;;;;;5047983;28;20155;-57
2021/01/13 06:19:02;;;;;;;10.18;3.72;;;-1.40;99.90;;;;;;5047415;28;20488;-57
2021/01/13 06:21:28;;;;;;;14.75;4.63;;;-1.40;99.90;;;;;;5046128;28;20029;-58
2021/01/13 06:23:54;;;;;;;13.95;4.78;;;-1.40;99.90;;;;;;5043657;28;20036;-57
2021/01/13 06:26:20;;;;;;;12.38;3.92;;;-1.50;99.90;;;;;;5048291;28;20032;-55
2021/01/13 06:29:01;;;;;;;9.48;4.10;;;-1.50;99.90;;;;;;5048521;28;20384;-57
2021/01/13 06:31:28;;;;;;;10.55;3.88;;;-1.40;99.90;;;;;;5032108;28;20037;-57
2021/01/13 06:34:08;;;;;;;12.98;3.72;;;-1.50;99.90;;;;;;5045715;28;20112;-57
2021/01/13 06:37:06;;;;;;;10.18;4.05;;;-1.50;99.90;;;;;;5041759;28;20128;-57
2021/01/13 06:39:33;;;;;;;17.75;4.72;;;-1.50;99.90;;;;;;5036735;28;20180;-56
2021/01/13 06:41:59;;;;;;;13.35;4.68;;;-1.50;99.90;;;;;;5044007;28;20029;-57
2021/01/13 06:44:25;;;;;;;10.00;4.40;;;-1.50;99.90;;;;;;5040230;28;20028;-56
2021/01/13 06:46:53;;;;;;;15.55;4.53;;;-1.50;99.90;;;;;;5034244;28;20519;-57
2021/01/13 06:49:21;;;;;;;12.82;4.22;;;-1.50;99.90;;;;;;5042542;28;20120;-59
2021/01/13 06:51:51;;;;;;;15.25;5.38;;;-1.50;99.90;;;;;;5043120;28;20171;-58
2021/01/13 06:54:19;;;;;;;13.27;4.07;;;-1.60;99.90;;;;;;5044889;28;20036;-54
2021/01/13 06:56:47;;;;;;;17.50;4.95;;;-1.50;99.90;;;;;;5041725;28;20492;-57
2021/01/13 06:59:14;;;;;;;12.88;5.13;;;-1.40;99.90;;;;;;5033760;28;20061;-57
2021/01/13 07:01:53;;;;;;;12.85;4.95;;;-1.50;99.90;;;;;;5037441;28;20061;-56
2021/01/13 07:04:19;;;;;;;11.57;4.32;;;-1.50;99.90;;;;;;5043536;28;20061;-56
2021/01/13 07:07:00;;;;;;;9.32;4.25;;;-1.50;99.90;;;;;;5041254;28;20028;-59
2021/01/13 07:09:37;;;;;;;13.57;4.70;;;-1.60;99.90;;;;;;5041099;28;20365;-57
2021/01/13 07:12:08;;;;;;;15.15;6.57;;;-1.60;99.90;;;;;;5041547;28;20041;-58
2021/01/13 07:14:41;;;;;;;16.50;6.70;;;-1.60;99.90;;;;;;5041371;28;20492;-56
2021/01/13 07:17:10;;;;;;;17.13;6.65;;;-1.60;99.90;;;;;;5046286;28;20796;-58
2021/01/13 07:19:37;;;;;;;16.48;5.90;;;-1.50;99.90;;;;;;5041510;28;20033;-57
2021/01/13 07:22:04;;;;;;;15.65;5.53;;;-1.50;99.90;;;;;;5041466;28;20385;-58
2021/01/13 07:24:30;;;;;;;12.02;4.90;;;-1.50;99.90;;;;;;5043744;28;20451;-57
2021/01/13 07:26:57;;;;;;;11.48;4.68;;;-1.50;99.90;;;;;;5042849;28;20036;-56
2021/01/13 07:29:27;;;;;;;14.55;6.65;;;-1.40;99.90;;;;;;5040392;28;20187;-58
2021/01/13 07:31:58;;;;;;;13.20;5.50;;;-1.40;99.90;;;;;;5036791;28;20517;-58
2021/01/13 07:34:35;;;;;;;13.55;4.75;;;-1.40;99.90;;;;;;5046506;28;20037;-57
2021/01/13 07:37:16;;;;;;;14.18;5.93;;;-1.40;99.90;;;;;;5040350;28;20056;-57
2021/01/13 07:40:10;;;;;;;8.65;4.43;;;-1.30;99.90;;;;;;5041564;28;20045;-57
2021/01/13 07:42:39;;;;;;;9.80;4.93;;;-1.20;99.90;;;;;;5040725;28;20060;-56
2021/01/13 07:45:16;;;;;;;10.23;4.32;;;-1.20;99.90;;;;;;5025215;28;20033;-57
2021/01/13 07:48:06;;;;;;;8.02;4.50;;;-1.10;99.90;;;;;;5040056;28;20087;-56
2021/01/13 07:50:33;;;;;;;9.93;3.28;;;-1.10;99.90;;;;;;5039739;28;20500;-55
2021/01/13 07:53:08;;;;;;;7.20;3.40;;;-1.00;99.90;;;;;;5040374;28;20039;-55
2021/01/13 07:55:42;;;;;;;10.90;5.25;;;-1.00;99.90;;;;;;5040568;28;20035;-57
2021/01/13 07:58:24;;;;;;;8.85;4.45;;;-1.00;99.90;;;;;;5041174;28;20509;-56
2021/01/13 08:01:21;;;;;;;11.00;4.72;;;-0.90;99.90;;;;;;5043535;28;20033;-58
2021/01/13 08:03:52;;;;;;;9.45;4.28;;;-0.90;99.90;;;;;;5043269;28;20064;-58
2021/01/13 08:06:30;;;;;;;8.90;4.07;;;-0.90;99.90;;;;;;5043920;28;20068;-59
2021/01/13 08:09:06;;;;;;;12.40;3.95;;;-0.80;99.90;;;;;;5045859;28;20064;-58
2021/01/13 08:11:53;;;;;;;10.02;4.97;;;-0.80;99.90;;;;;;5044890;28;20094;-58
2021/01/13 08:14:47;;;;;;;7.95;4.28;;;-0.70;99.90;;;;;;5046957;28;20562;-57
2021/01/13 08:17:37;;;;;;;10.57;4.00;;;-0.60;99.90;;;;;;5044137;28;20076;-57
2021/01/13 08:20:28;;;;;;;23.65;9.20;;;-0.60;99.90;;;;;;5040558;28;20489;-57
2021/01/13 08:22:59;;;;;;;18.95;6.45;;;-0.50;99.90;;;;;;5045440;28;20075;-57
2021/01/13 08:25:29;;;;;;;13.98;5.35;;;-0.50;99.90;;;;;;5044670;28;20029;-57
2021/01/13 08:28:02;;;;;;;8.20;3.83;;;-0.40;99.90;;;;;;5044655;28;20043;-58
2021/01/13 08:30:29;;;;;;;8.65;4.30;;;-0.40;99.90;;;;;;5043800;28;20041;-58
2021/01/13 08:32:56;;;;;;;10.18;4.35;;;-0.40;99.90;;;;;;5045928;28;20050;-57
2021/01/13 08:35:34;;;;;;;11.30;5.03;;;-0.40;99.90;;;;;;5047367;28;20035;-58
2021/01/13 08:38:11;;;;;;;10.23;5.18;;;-0.30;99.90;;;;;;5045953;28;20056;-58
2021/01/13 08:40:40;;;;;;;9.57;4.82;;;-0.10;99.90;;;;;;5048354;28;20441;-58
2021/01/13 08:43:14;;;;;;;10.75;4.50;;;-0.10;99.90;;;;;;5045982;28;20039;-55
2021/01/13 08:46:05;;;;;;;12.45;4.68;;;0.00;99.90;;;;;;5049671;28;20047;-58
2021/01/13 08:48:43;;;;;;;13.70;5.20;;;0.00;99.90;;;;;;5036939;28;20045;-59
2021/01/13 08:51:09;;;;;;;15.27;5.30;;;0.10;99.90;;;;;;5046912;28;20033;-58
2021/01/13 08:53:35;;;;;;;12.60;4.93;;;0.20;99.90;;;;;;5047587;28;20409;-58
2021/01/13 08:56:02;;;;;;;13.52;4.15;;;0.20;99.90;;;;;;5044806;28;20155;-59
2021/01/13 08:58:33;;;;;;;14.02;4.88;;;0.40;99.90;;;;;;5050077;28;20049;-58
2021/01/13 09:01:35;;;;;;;13.50;5.32;;;0.50;99.90;;;;;;5042933;28;20064;-57
2021/01/13 09:04:34;;;;;;;11.48;5.07;;;0.50;99.90;;;;;;5047021;28;20560;-57
2021/01/13 09:07:01;;;;;;;13.25;4.70;;;0.60;99.90;;;;;;5044155;28;20040;-58
2021/01/13 09:09:40;;;;;;;10.07;4.25;;;0.70;99.90;;;;;;5049434;28;20397;-58
2021/01/13 09:12:31;;;;;;;9.10;3.97;;;0.80;99.70;;;;;;5048255;28;20060;-59
2021/01/13 09:15:09;;;;;;;9.75;4.00;;;0.90;99.40;;;;;;5042143;28;20045;-58
2021/01/13 09:17:41;;;;;;;8.60;3.50;;;1.00;98.40;;;;;;5041483;28;20071;-58
2021/01/13 09:20:10;;;;;;;7.30;3.45;;;1.00;98.30;;;;;;5048676;28;20025;-58
2021/01/13 09:22:50;;;;;;;10.18;3.65;;;1.10;98.20;;;;;;5048977;28;20492;-58
2021/01/13 09:25:42;;;;;;;9.93;3.90;;;1.20;97.80;;;;;;5049650;28;20115;-59
2021/01/13 09:28:18;;;;;;;10.48;4.60;;;1.30;97.60;;;;;;5024555;28;20110;-59
2021/01/13 09:30:45;;;;;;;9.35;3.95;;;1.40;98.30;;;;;;5048531;28;20394;-57
2021/01/13 09:33:18;;;;;;;9.02;3.92;;;1.40;97.60;;;;;;5048605;28;20119;-58
2021/01/13 09:36:00;;;;;;;9.57;3.92;;;1.40;97.40;;;;;;5049436;28;20042;-57
2021/01/13 09:38:30;;;;;;;12.50;4.70;;;1.50;97.00;;;;;;5045830;28;20618;-59
2021/01/13 09:41:02;;;;;;;11.43;4.65;;;1.60;96.90;;;;;;5049408;28;20044;-58
2021/01/13 09:43:31;;;;;;;16.15;5.13;;;1.70;96.20;;;;;;5048371;28;20033;-58
2021/01/13 09:46:04;;;;;;;13.80;5.45;;;1.80;96.30;;;;;;5049016;28;20086;-58
2021/01/13 09:48:32;;;;;;;11.73;5.57;;;1.90;95.00;;;;;;5048300;28;20063;-58
2021/01/13 09:51:10;;;;;;;12.88;4.38;;;2.10;94.60;;;;;;5039778;28;20452;-59
2021/01/13 09:53:58;;;;;;;14.38;5.28;;;2.20;94.10;;;;;;5047276;28;20032;-58
2021/01/13 09:56:32;;;;;;;10.20;4.47;;;2.20;94.40;;;;;;5036463;28;20044;-57
2021/01/13 09:59:03;;;;;;;13.93;4.80;;;2.30;94.50;;;;;;5016704;28;20049;-58
2021/01/13 10:01:31;;;;;;;8.77;4.28;;;2.40;93.70;;;;;;5026814;28;20064;-60
2021/01/13 10:04:18;;;;;;;10.07;4.47;;;2.50;93.60;;;;;;5037207;28;20033;-59
2021/01/13 10:09:36;;;;;;;13.43;5.05;;;2.50;93.30;;;;;;5042604;28;20087;-58
2021/01/13 10:12:01;;;;;;;15.63;7.15;;;2.70;92.50;;;;;;5043789;28;20089;-58
2021/01/13 10:14:30;;;;;;;15.88;5.75;;;2.70;92.20;;;;;;5029987;28;20084;-59
2021/01/13 10:16:56;;;;;;;12.60;5.32;;;2.70;91.90;;;;;;5047439;28;20120;-59
2021/01/13 10:19:27;;;;;;;8.30;4.70;;;2.80;91.70;;;;;;5046477;28;20424;-59
2021/01/13 10:22:00;;;;;;;29.58;10.50;;;2.80;91.20;;;;;;5034876;28;20033;-58
2021/01/13 10:24:29;;;;;;;22.55;9.50;;;3.00;90.80;;;;;;5032601;28;20024;-59
2021/01/13 10:27:00;;;;;;;18.13;7.05;;;3.20;91.20;;;;;;5038792;28;20036;-58
2021/01/13 10:29:26;;;;;;;10.00;4.72;;;3.10;90.60;;;;;;5039403;28;20120;-60
2021/01/13 10:31:52;;;;;;;10.43;4.68;;;3.10;90.30;;;;;;5043037;28;20073;-60
2021/01/13 10:34:19;;;;;;;8.32;4.43;;;3.20;90.20;;;;;;5044695;28;20078;-59
2021/01/13 10:36:49;;;;;;;7.88;3.50;;;3.30;89.90;;;;;;5048557;28;20047;-58
2021/01/13 10:39:21;;;;;;;9.05;4.05;;;3.40;87.10;;;;;;5046746;28;20037;-59
2021/01/13 10:41:52;;;;;;;5.95;3.47;;;3.50;87.20;;;;;;5044272;28;20512;-58
2021/01/13 10:44:19;;;;;;;5.60;3.10;;;3.70;83.40;;;;;;5048202;28;20037;-59
2021/01/13 10:46:50;;;;;;;6.20;3.03;;;3.80;83.30;;;;;;5035959;28;20501;-59
2021/01/13 10:49:23;;;;;;;7.00;2.88;;;3.80;82.40;;;;;;5044409;28;20043;-59
2021/01/13 10:51:51;;;;;;;10.48;2.85;;;3.90;84.30;;;;;;5028534;28;20079;-59
2021/01/13 10:54:20;;;;;;;6.43;2.22;;;3.90;84.40;;;;;;5033790;28;20026;-59
2021/01/13 10:56:51;;;;;;;4.75;2.42;;;4.00;83.00;;;;;;5028228;28;20029;-59
2021/01/13 10:59:17;;;;;;;5.40;2.88;;;4.10;82.40;;;;;;5043647;28;20045;-59
2021/01/13 11:02:11;;;;;;;7.90;3.25;;;4.30;82.30;;;;;;5048114;28;20032;-59
2021/01/13 11:04:45;;;;;;;6.53;2.60;;;4.20;80.90;;;;;;5042241;28;20036;-59
2021/01/13 11:07:11;;;;;;;5.53;2.60;;;4.20;82.80;;;;;;5033095;28;20122;-59
2021/01/13 11:09:42;;;;;;;5.25;2.92;;;4.10;81.50;;;;;;5028505;28;20473;-59
2021/01/13 11:12:10;;;;;;;5.22;2.75;;;4.20;80.70;;;;;;5028204;28;20033;-59
2021/01/13 11:14:46;;;;;;;8.52;3.00;;;4.40;81.50;;;;;;5028251;28;20469;-59
2021/01/13 11:17:14;;;;;;;5.60;1.88;;;4.40;80.60;;;;;;5028134;28;20045;-59
2021/01/13 11:19:44;;;;;;;6.45;2.35;;;4.60;77.80;;;;;;5028415;28;20030;-60
2021/01/13 11:22:10;;;;;;;7.30;1.95;;;4.60;81.00;;;;;;5027983;28;20045;-59
2021/01/13 11:24:54;;;;;;;4.47;1.92;;;4.50;80.60;;;;;;5028563;28;20029;-60
2021/01/13 11:27:24;;;;;;;8.55;3.08;;;4.50;79.50;;;;;;5041504;28;20073;-59
2021/01/13 11:29:55;;;;;;;6.97;2.58;;;4.60;78.20;;;;;;5045737;28;20040;-60
2021/01/13 11:32:29;;;;;;;7.22;3.05;;;4.80;77.30;;;;;;5031012;28;20106;-61
2021/01/13 11:34:55;;;;;;;8.70;3.10;;;4.90;75.20;;;;;;5051774;28;20420;-59
2021/01/13 11:37:48;;;;;;;11.27;2.55;;;4.90;77.90;;;;;;5050733;28;20040;-59
2021/01/13 11:40:35;;;;;;;4.95;1.92;;;4.80;76.20;;;;;;5049821;28;20036;-61
2021/01/13 11:43:38;;;;;;;5.38;2.25;;;4.80;75.80;;;;;;5049793;28;20498;-59
2021/01/13 11:46:28;;;;;;;4.55;1.67;;;4.90;75.30;;;;;;5052055;28;20531;-59
2021/01/13 11:49:13;;;;;;;4.97;2.13;;;5.00;77.20;;;;;;5051896;28;20032;-59
2021/01/13 11:51:42;;;;;;;3.95;1.52;;;4.90;77.60;;;;;;5051548;28;20057;-60
2021/01/13 11:54:27;;;;;;;3.50;1.20;;;5.00;77.00;;;;;;5051580;28;20171;-59
2021/01/13 11:56:54;;;;;;;3.80;1.27;;;5.20;72.40;;;;;;5051242;28;20501;-57
2021/01/13 11:59:29;;;;;;;3.17;1.60;;;5.40;73.80;;;;;;5051114;28;20057;-59
2021/01/13 12:02:04;;;;;;;3.30;1.50;;;5.30;73.80;;;;;;5051295;28;20033;-59
2021/01/13 12:04:30;;;;;;;3.70;1.60;;;5.40;73.70;;;;;;5051202;28;20033;-58
2021/01/13 12:06:58;;;;;;;2.38;1.15;;;5.40;75.00;;;;;;5051469;28;20059;-59
2021/01/13 12:09:24;;;;;;;2.50;1.05;;;5.40;73.80;;;;;;5051014;28;20082;-60
2021/01/13 12:11:49;;;;;;;4.72;1.80;;;5.50;74.80;;;;;;5050952;28;20043;-59
2021/01/13 12:14:21;;;;;;;2.97;1.33;;;5.50;72.20;;;;;;5051239;28;20025;-59
2021/01/13 12:17:00;;;;;;;4.10;1.48;;;5.60;73.20;;;;;;5051014;28;20033;-59
2021/01/13 12:19:51;;;;;;;3.00;0.90;;;5.50;73.40;;;;;;5037287;28;20029;-59
2021/01/13 12:22:31;;;;;;;2.65;0.70;;;5.40;71.20;;;;;;5051127;28;20036;-59
2021/01/13 12:24:56;;;;;;;1.83;0.60;;;5.40;71.70;;;;;;5047886;28;20548;-58
2021/01/13 12:27:26;;;;;;;1.60;0.70;;;5.40;72.60;;;;;;5048819;28;20122;-59
2021/01/13 12:30:12;;;;;;;7.28;1.40;;;5.40;73.00;;;;;;5039512;28;20054;-59
2021/01/13 12:32:48;;;;;;;1.38;0.57;;;5.40;72.30;;;;;;5050461;28;20029;-59
2021/01/13 12:35:19;;;;;;;;;;;5.40;73.00;;;;;;5033821;28;20131;-59
2021/01/13 12:37:49;;;;;;;1.30;0.55;;;5.50;70.40;;;;;;5030704;28;20377;-59
2021/01/13 12:40:39;;;;;;;4.47;1.08;;;5.60;73.40;;;;;;5030604;28;20025;-59
2021/01/13 12:43:29;;;;;;;2.38;0.80;;;5.60;72.70;;;;;;5029366;28;20025;-59
2021/01/13 12:46:17;;;;;;;2.65;0.73;;;5.70;72.30;;;;;;5029217;28;20511;-59
2021/01/13 12:49:02;;;;;;;3.90;1.35;;;5.70;72.30;;;;;;5030533;28;20055;-59
2021/01/13 12:51:47;;;;;;;3.88;1.20;;;5.90;72.80;;;;;;5006876;28;20267;-59
2021/01/13 12:54:15;;;;;;;3.65;1.10;;;5.90;73.50;;;;;;5030367;28;20045;-59
2021/01/13 12:56:44;;;;;;;3.65;1.73;;;6.00;72.80;;;;;;5038764;28;20170;-59
2021/01/13 12:59:25;;;;;;;6.95;1.58;;;6.00;73.50;;;;;;5049968;28;20087;-59
2021/01/13 13:01:57;;;;;;;3.97;0.95;;;5.90;74.90;;;;;;5037314;28;20125;-59
2021/01/13 13:04:47;;;;;;;2.92;1.02;;;5.80;74.90;;;;;;5041383;28;20025;-59
2021/01/13 13:07:34;;;;;;;3.95;1.27;;;5.90;73.60;;;;;;5049796;28;20025;-59
2021/01/13 13:13:25;;;;;;;3.42;1.23;;;6.10;74.30;;;;;;5050079;28;20035;-59
2021/01/13 13:15:51;;;;;;;7.10;2.85;;;6.20;73.10;;;;;;5050015;28;20043;-59
2021/01/13 13:18:17;;;;;;;3.33;1.98;;;6.20;75.80;;;;;;5049778;28;20368;-60
2021/01/13 13:20:58;;;;;;;4.55;2.15;;;6.10;75.10;;;;;;5026217;28;20124;-59
2021/01/13 13:23:23;;;;;;;4.80;2.22;;;6.00;74.40;;;;;;5049933;28;20048;-60